sensor_id;sensor_type;location;lat;lon;timestamp;P1;durP1;ratioP1;P2;durP2;ratioP2
5981;SDS011;3018;48.730;9.336;2022-12-18T00:00:41;80.32;;;36.10;;
5981;SDS011;3018;48.730;9.336;2022-12-18T00:03:07;80.68;;;35.67;;
5981;SDS011;3018;48.730;9.336;2022-12-18T00:05:34;84.18;;;36.90;;
5981;SDS011;3018;48.730;9.336;2022-12-18T00:08:00;92.10;;;38.40;;
5981;SDS011;3018;48.730;9.336;2022-12-18T00:10:27;94.43;;;40.40;;
5981;SDS011;3018;48.730;9.336;2022-12-18T00:12:54;91.90;;;38.05;;
5981;SDS011;3018;48.730;9.336;2022-12-18T00:15:21;86.80;;;38.42;;
5981;SDS011;3018;48.730;9.336;2022-12-18T00:17:47;89.07;;;38.65;;
5981;SDS011;3018;48.730;9.336;2022-12-18T00:20:13;85.03;;;37.63;;
5981;SDS011;3018;48.730;9.336;2022-12-18T00:22:39;89.88;;;39.33;;
5981;SDS011;3018;48.730;9.336;2022-12-18T00:25:06;96.70;;;39.80;;
5981;SDS011;3018;48.730;9.336;2022-12-18T00:27:32;86.13;;;38.00;;
5981;SDS011;3018;48.730;9.336;2022-12-18T00:30:00;88.43;;;38.13;;
5981;SDS011;3018;48.730;9.336;2022-12-18T00:32:26;88.25;;;38.50;;
5981;SDS011;3018;48.730;9.336;2022-12-18T00:34:52;95.72;;;39.55;;
5981;SDS011;3018;48.730;9.336;2022-12-18T00:37:19;89.57;;;39.63;;
5981;SDS011;3018;48.730;9.336;2022-12-18T00:39:45;91.00;;;38.78;;
5981;SDS011;3018;48.730;9.336;2022-12-18T00:42:13;94.65;;;39.00;;
5981;SDS011;3018;48.730;9.336;2022-12-18T00:44:57;84.85;;;38.08;;
5981;SDS011;3018;48.730;9.336;2022-12-18T00:47:25;91.40;;;38.42;;
5981;SDS011;3018;48.730;9.336;2022-12-18T00:49:51;84.82;;;38.17;;
5981;SDS011;3018;48.730;9.336;2022-12-18T00:52:17;84.95;;;37.25;;
5981;SDS011;3018;48.730;9.336;2022-12-18T00:54:43;83.60;;;39.03;;
5981;SDS011;3018;48.730;9.336;2022-12-18T00:57:10;84.68;;;37.53;;
5981;SDS011;3018;48.730;9.336;2022-12-18T00:59:36;93.68;;;39.35;;
5981;SDS011;3018;48.730;9.336;2022-12-18T01:02:02;96.20;;;38.67;;
5981;SDS011;3018;48.730;9.336;2022-12-18T01:04:31;89.72;;;39.08;;
5981;SDS011;3018;48.730;9.336;2022-12-18T01:06:58;88.75;;;37.70;;
5981;SDS011;3018;48.730;9.336;2022-12-18T01:09:24;81.13;;;35.42;;
5981;SDS011;3018;48.730;9.336;2022-12-18T01:11:51;91.82;;;37.85;;
5981;SDS011;3018;48.730;9.336;2022-12-18T01:14:17;85.03;;;37.72;;
5981;SDS011;3018;48.730;9.336;2022-12-18T01:16:43;85.75;;;36.13;;
5981;SDS011;3018;48.730;9.336;2022-12-18T01:19:09;82.03;;;34.30;;
5981;SDS011;3018;48.730;9.336;2022-12-18T01:21:37;79.07;;;34.90;;
5981;SDS011;3018;48.730;9.336;2022-12-18T01:24:04;78.97;;;34.47;;
5981;SDS011;3018;48.730;9.336;2022-12-18T01:26:30;79.18;;;33.65;;
5981;SDS011;3018;48.730;9.336;2022-12-18T01:28:56;78.72;;;33.88;;
5981;SDS011;3018;48.730;9.336;2022-12-18T01:31:24;71.95;;;32.30;;
5981;SDS011;3018;48.730;9.336;2022-12-18T01:33:51;81.70;;;35.63;;
5981;SDS011;3018;48.730;9.336;2022-12-18T01:36:18;80.25;;;33.63;;
5981;SDS011;3018;48.730;9.336;2022-12-18T01:38:48;76.32;;;34.65;;
5981;SDS011;3018;48.730;9.336;2022-12-18T01:41:15;70.43;;;32.28;;
5981;SDS011;3018;48.730;9.336;2022-12-18T01:43:43;78.90;;;34.40;;
5981;SDS011;3018;48.730;9.336;2022-12-18T01:46:09;80.00;;;34.05;;
5981;SDS011;3018;48.730;9.336;2022-12-18T01:48:36;71.97;;;32.53;;
5981;SDS011;3018;48.730;9.336;2022-12-18T01:51:02;73.35;;;33.97;;
5981;SDS011;3018;48.730;9.336;2022-12-18T01:53:29;70.65;;;31.50;;
5981;SDS011;3018;48.730;9.336;2022-12-18T01:55:56;66.57;;;32.20;;
5981;SDS011;3018;48.730;9.336;2022-12-18T01:58:24;64.70;;;30.02;;
5981;SDS011;3018;48.730;9.336;2022-12-18T02:00:53;68.18;;;31.17;;
5981;SDS011;3018;48.730;9.336;2022-12-18T02:03:20;68.60;;;31.45;;
5981;SDS011;3018;48.730;9.336;2022-12-18T02:05:47;66.18;;;30.13;;
5981;SDS011;3018;48.730;9.336;2022-12-18T02:08:16;74.38;;;32.53;;
5981;SDS011;3018;48.730;9.336;2022-12-18T02:10:45;63.33;;;29.13;;
5981;SDS011;3018;48.730;9.336;2022-12-18T02:13:14;68.82;;;30.85;;
5981;SDS011;3018;48.730;9.336;2022-12-18T02:15:47;68.47;;;30.70;;
5981;SDS011;3018;48.730;9.336;2022-12-18T02:18:18;72.82;;;31.90;;
5981;SDS011;3018;48.730;9.336;2022-12-18T02:20:45;69.72;;;31.77;;
5981;SDS011;3018;48.730;9.336;2022-12-18T02:23:17;77.38;;;32.90;;
5981;SDS011;3018;48.730;9.336;2022-12-18T02:25:54;69.32;;;31.05;;
5981;SDS011;3018;48.730;9.336;2022-12-18T02:28:25;70.07;;;31.85;;
5981;SDS011;3018;48.730;9.336;2022-12-18T02:30:52;72.30;;;31.83;;
5981;SDS011;3018;48.730;9.336;2022-12-18T02:33:19;71.38;;;32.33;;
5981;SDS011;3018;48.730;9.336;2022-12-18T02:35:46;62.17;;;29.05;;
5981;SDS011;3018;48.730;9.336;2022-12-18T02:38:13;65.00;;;29.13;;
5981;SDS011;3018;48.730;9.336;2022-12-18T02:40:40;64.05;;;29.35;;
5981;SDS011;3018;48.730;9.336;2022-12-18T02:43:09;63.75;;;28.50;;
5981;SDS011;3018;48.730;9.336;2022-12-18T02:45:35;64.78;;;30.08;;
5981;SDS011;3018;48.730;9.336;2022-12-18T02:48:03;60.63;;;28.05;;
5981;SDS011;3018;48.730;9.336;2022-12-18T02:50:30;62.58;;;28.63;;
5981;SDS011;3018;48.730;9.336;2022-12-18T02:53:02;61.55;;;29.65;;
5981;SDS011;3018;48.730;9.336;2022-12-18T02:55:33;64.07;;;30.58;;
5981;SDS011;3018;48.730;9.336;2022-12-18T02:58:03;65.20;;;29.17;;
5981;SDS011;3018;48.730;9.336;2022-12-18T03:00:32;61.05;;;28.58;;
5981;SDS011;3018;48.730;9.336;2022-12-18T03:03:02;63.53;;;29.25;;
5981;SDS011;3018;48.730;9.336;2022-12-18T03:05:33;63.70;;;28.15;;
5981;SDS011;3018;48.730;9.336;2022-12-18T03:08:02;62.03;;;29.30;;
5981;SDS011;3018;48.730;9.336;2022-12-18T03:10:29;56.67;;;27.63;;
5981;SDS011;3018;48.730;9.336;2022-12-18T03:12:59;55.95;;;27.25;;
5981;SDS011;3018;48.730;9.336;2022-12-18T03:15:27;61.92;;;27.98;;
5981;SDS011;3018;48.730;9.336;2022-12-18T03:17:56;60.78;;;28.23;;
5981;SDS011;3018;48.730;9.336;2022-12-18T03:20:25;65.45;;;28.45;;
5981;SDS011;3018;48.730;9.336;2022-12-18T03:22:53;58.95;;;28.02;;
5981;SDS011;3018;48.730;9.336;2022-12-18T03:25:22;59.85;;;26.63;;
5981;SDS011;3018;48.730;9.336;2022-12-18T03:27:49;60.75;;;27.10;;
5981;SDS011;3018;48.730;9.336;2022-12-18T03:30:17;60.88;;;28.25;;
5981;SDS011;3018;48.730;9.336;2022-12-18T03:32:44;57.03;;;25.67;;
5981;SDS011;3018;48.730;9.336;2022-12-18T03:35:16;59.80;;;26.75;;
5981;SDS011;3018;48.730;9.336;2022-12-18T03:37:44;51.10;;;25.95;;
5981;SDS011;3018;48.730;9.336;2022-12-18T03:40:10;58.28;;;27.30;;
5981;SDS011;3018;48.730;9.336;2022-12-18T03:42:38;61.03;;;28.02;;
5981;SDS011;3018;48.730;9.336;2022-12-18T03:45:08;60.85;;;26.92;;
5981;SDS011;3018;48.730;9.336;2022-12-18T03:47:36;64.47;;;27.23;;
5981;SDS011;3018;48.730;9.336;2022-12-18T03:50:06;58.80;;;26.08;;
5981;SDS011;3018;48.730;9.336;2022-12-18T03:52:36;57.47;;;28.08;;
5981;SDS011;3018;48.730;9.336;2022-12-18T03:55:03;55.85;;;27.30;;
5981;SDS011;3018;48.730;9.336;2022-12-18T03:57:30;64.43;;;27.30;;
5981;SDS011;3018;48.730;9.336;2022-12-18T03:59:58;56.97;;;27.35;;
5981;SDS011;3018;48.730;9.336;2022-12-18T04:02:24;59.83;;;28.45;;
5981;SDS011;3018;48.730;9.336;2022-12-18T04:04:51;58.30;;;26.80;;
5981;SDS011;3018;48.730;9.336;2022-12-18T04:07:18;66.38;;;27.20;;
5981;SDS011;3018;48.730;9.336;2022-12-18T04:09:47;52.55;;;26.20;;
5981;SDS011;3018;48.730;9.336;2022-12-18T04:12:14;54.20;;;26.23;;
5981;SDS011;3018;48.730;9.336;2022-12-18T04:14:40;55.00;;;25.60;;
5981;SDS011;3018;48.730;9.336;2022-12-18T04:17:06;57.15;;;26.15;;
5981;SDS011;3018;48.730;9.336;2022-12-18T04:19:33;57.30;;;25.42;;
5981;SDS011;3018;48.730;9.336;2022-12-18T04:21:59;48.88;;;24.83;;
5981;SDS011;3018;48.730;9.336;2022-12-18T04:24:25;53.95;;;24.90;;
5981;SDS011;3018;48.730;9.336;2022-12-18T04:26:53;53.00;;;25.77;;
5981;SDS011;3018;48.730;9.336;2022-12-18T04:29:19;55.25;;;25.80;;
5981;SDS011;3018;48.730;9.336;2022-12-18T04:31:46;58.38;;;25.60;;
5981;SDS011;3018;48.730;9.336;2022-12-18T04:34:12;50.88;;;24.35;;
5981;SDS011;3018;48.730;9.336;2022-12-18T04:36:38;54.08;;;24.55;;
5981;SDS011;3018;48.730;9.336;2022-12-18T04:39:04;49.03;;;23.75;;
5981;SDS011;3018;48.730;9.336;2022-12-18T04:41:31;52.67;;;24.55;;
5981;SDS011;3018;48.730;9.336;2022-12-18T04:43:58;48.67;;;23.33;;
5981;SDS011;3018;48.730;9.336;2022-12-18T04:46:25;51.92;;;24.23;;
5981;SDS011;3018;48.730;9.336;2022-12-18T04:48:51;45.22;;;22.55;;
5981;SDS011;3018;48.730;9.336;2022-12-18T04:51:18;53.25;;;23.88;;
5981;SDS011;3018;48.730;9.336;2022-12-18T04:53:44;48.42;;;22.45;;
5981;SDS011;3018;48.730;9.336;2022-12-18T04:56:11;55.42;;;24.05;;
5981;SDS011;3018;48.730;9.336;2022-12-18T04:58:38;42.58;;;22.33;;
5981;SDS011;3018;48.730;9.336;2022-12-18T05:01:06;52.60;;;23.40;;
5981;SDS011;3018;48.730;9.336;2022-12-18T05:03:33;48.10;;;23.52;;
5981;SDS011;3018;48.730;9.336;2022-12-18T05:05:59;45.88;;;22.80;;
5981;SDS011;3018;48.730;9.336;2022-12-18T05:08:26;51.90;;;23.75;;
5981;SDS011;3018;48.730;9.336;2022-12-18T05:10:57;45.45;;;22.90;;
5981;SDS011;3018;48.730;9.336;2022-12-18T05:13:24;43.42;;;22.15;;
5981;SDS011;3018;48.730;9.336;2022-12-18T05:15:51;44.55;;;23.02;;
5981;SDS011;3018;48.730;9.336;2022-12-18T05:18:18;46.63;;;22.92;;
5981;SDS011;3018;48.730;9.336;2022-12-18T05:20:44;47.15;;;23.77;;
5981;SDS011;3018;48.730;9.336;2022-12-18T05:23:11;45.53;;;22.75;;
5981;SDS011;3018;48.730;9.336;2022-12-18T05:25:37;46.80;;;22.95;;
5981;SDS011;3018;48.730;9.336;2022-12-18T05:28:03;53.38;;;23.52;;
5981;SDS011;3018;48.730;9.336;2022-12-18T05:30:30;43.47;;;22.55;;
5981;SDS011;3018;48.730;9.336;2022-12-18T05:32:56;52.75;;;23.13;;
5981;SDS011;3018;48.730;9.336;2022-12-18T05:35:24;48.65;;;23.95;;
5981;SDS011;3018;48.730;9.336;2022-12-18T05:37:50;49.35;;;23.45;;
5981;SDS011;3018;48.730;9.336;2022-12-18T05:40:16;44.00;;;22.00;;
5981;SDS011;3018;48.730;9.336;2022-12-18T05:42:43;50.17;;;22.65;;
5981;SDS011;3018;48.730;9.336;2022-12-18T05:45:09;48.25;;;22.85;;
5981;SDS011;3018;48.730;9.336;2022-12-18T05:47:35;42.50;;;22.73;;
5981;SDS011;3018;48.730;9.336;2022-12-18T05:50:02;40.50;;;21.02;;
5981;SDS011;3018;48.730;9.336;2022-12-18T05:52:29;40.28;;;21.15;;
5981;SDS011;3018;48.730;9.336;2022-12-18T05:54:56;43.72;;;21.50;;
5981;SDS011;3018;48.730;9.336;2022-12-18T05:57:23;41.58;;;21.65;;
5981;SDS011;3018;48.730;9.336;2022-12-18T05:59:50;44.47;;;22.33;;
5981;SDS011;3018;48.730;9.336;2022-12-18T06:02:16;40.33;;;20.55;;
5981;SDS011;3018;48.730;9.336;2022-12-18T06:04:42;42.83;;;21.05;;
5981;SDS011;3018;48.730;9.336;2022-12-18T06:07:09;45.35;;;22.55;;
5981;SDS011;3018;48.730;9.336;2022-12-18T06:09:36;42.85;;;22.08;;
5981;SDS011;3018;48.730;9.336;2022-12-18T06:12:03;40.50;;;22.13;;
5981;SDS011;3018;48.730;9.336;2022-12-18T06:14:29;48.22;;;21.98;;
5981;SDS011;3018;48.730;9.336;2022-12-18T06:16:55;44.17;;;22.42;;
5981;SDS011;3018;48.730;9.336;2022-12-18T06:19:22;49.92;;;23.48;;
5981;SDS011;3018;48.730;9.336;2022-12-18T06:21:48;49.67;;;23.00;;
5981;SDS011;3018;48.730;9.336;2022-12-18T06:24:15;46.30;;;21.95;;
5981;SDS011;3018;48.730;9.336;2022-12-18T06:26:43;49.25;;;22.83;;
5981;SDS011;3018;48.730;9.336;2022-12-18T06:29:09;43.15;;;22.20;;
5981;SDS011;3018;48.730;9.336;2022-12-18T06:31:36;40.03;;;20.80;;
5981;SDS011;3018;48.730;9.336;2022-12-18T06:34:02;44.28;;;22.75;;
5981;SDS011;3018;48.730;9.336;2022-12-18T06:36:29;41.85;;;20.75;;
5981;SDS011;3018;48.730;9.336;2022-12-18T06:38:55;42.30;;;21.63;;
5981;SDS011;3018;48.730;9.336;2022-12-18T06:41:22;42.33;;;20.88;;
5981;SDS011;3018;48.730;9.336;2022-12-18T06:43:49;46.42;;;22.38;;
5981;SDS011;3018;48.730;9.336;2022-12-18T06:46:16;47.42;;;22.00;;
5981;SDS011;3018;48.730;9.336;2022-12-18T06:48:42;43.95;;;22.15;;
5981;SDS011;3018;48.730;9.336;2022-12-18T06:51:08;41.65;;;21.35;;
5981;SDS011;3018;48.730;9.336;2022-12-18T06:53:34;45.97;;;22.02;;
5981;SDS011;3018;48.730;9.336;2022-12-18T06:56:01;38.55;;;20.52;;
5981;SDS011;3018;48.730;9.336;2022-12-18T06:58:27;44.92;;;22.88;;
5981;SDS011;3018;48.730;9.336;2022-12-18T07:01:00;47.35;;;23.55;;
5981;SDS011;3018;48.730;9.336;2022-12-18T07:03:27;46.35;;;22.67;;
5981;SDS011;3018;48.730;9.336;2022-12-18T07:05:53;45.00;;;21.13;;
5981;SDS011;3018;48.730;9.336;2022-12-18T07:08:19;52.88;;;23.65;;
5981;SDS011;3018;48.730;9.336;2022-12-18T07:10:46;55.58;;;23.95;;
5981;SDS011;3018;48.730;9.336;2022-12-18T07:13:14;52.15;;;23.08;;
5981;SDS011;3018;48.730;9.336;2022-12-18T07:15:40;49.30;;;20.95;;
5981;SDS011;3018;48.730;9.336;2022-12-18T07:18:07;51.38;;;22.02;;
5981;SDS011;3018;48.730;9.336;2022-12-18T07:20:34;46.13;;;23.25;;
5981;SDS011;3018;48.730;9.336;2022-12-18T07:23:01;50.65;;;22.98;;
5981;SDS011;3018;48.730;9.336;2022-12-18T07:25:27;50.33;;;22.20;;
5981;SDS011;3018;48.730;9.336;2022-12-18T07:27:54;44.20;;;22.35;;
5981;SDS011;3018;48.730;9.336;2022-12-18T07:30:20;44.33;;;22.80;;
5981;SDS011;3018;48.730;9.336;2022-12-18T07:32:46;49.85;;;22.85;;
5981;SDS011;3018;48.730;9.336;2022-12-18T07:35:14;46.53;;;22.23;;
5981;SDS011;3018;48.730;9.336;2022-12-18T07:37:40;48.78;;;22.35;;
5981;SDS011;3018;48.730;9.336;2022-12-18T07:40:07;50.28;;;22.63;;
5981;SDS011;3018;48.730;9.336;2022-12-18T07:42:34;47.40;;;23.42;;
5981;SDS011;3018;48.730;9.336;2022-12-18T07:45:01;51.95;;;23.30;;
5981;SDS011;3018;48.730;9.336;2022-12-18T07:47:28;46.83;;;22.55;;
5981;SDS011;3018;48.730;9.336;2022-12-18T07:49:58;49.63;;;22.67;;
5981;SDS011;3018;48.730;9.336;2022-12-18T07:52:25;48.90;;;21.63;;
5981;SDS011;3018;48.730;9.336;2022-12-18T07:54:52;45.00;;;22.63;;
5981;SDS011;3018;48.730;9.336;2022-12-18T07:57:18;48.70;;;21.05;;
5981;SDS011;3018;48.730;9.336;2022-12-18T07:59:44;48.00;;;23.48;;
5981;SDS011;3018;48.730;9.336;2022-12-18T08:02:11;49.78;;;23.10;;
5981;SDS011;3018;48.730;9.336;2022-12-18T08:04:37;45.05;;;21.83;;
5981;SDS011;3018;48.730;9.336;2022-12-18T08:07:03;44.60;;;22.67;;
5981;SDS011;3018;48.730;9.336;2022-12-18T08:09:31;51.92;;;22.70;;
5981;SDS011;3018;48.730;9.336;2022-12-18T08:11:57;53.05;;;23.20;;
5981;SDS011;3018;48.730;9.336;2022-12-18T08:14:23;50.28;;;24.27;;
5981;SDS011;3018;48.730;9.336;2022-12-18T08:16:50;54.03;;;24.10;;
5981;SDS011;3018;48.730;9.336;2022-12-18T08:19:16;58.50;;;24.48;;
5981;SDS011;3018;48.730;9.336;2022-12-18T08:21:43;48.55;;;23.42;;
5981;SDS011;3018;48.730;9.336;2022-12-18T08:24:09;58.15;;;25.15;;
5981;SDS011;3018;48.730;9.336;2022-12-18T08:26:36;52.00;;;25.58;;
5981;SDS011;3018;48.730;9.336;2022-12-18T08:29:03;52.08;;;25.33;;
5981;SDS011;3018;48.730;9.336;2022-12-18T08:31:29;53.63;;;26.00;;
5981;SDS011;3018;48.730;9.336;2022-12-18T08:33:56;53.25;;;25.30;;
5981;SDS011;3018;48.730;9.336;2022-12-18T08:36:23;51.80;;;26.65;;
5981;SDS011;3018;48.730;9.336;2022-12-18T08:38:49;59.08;;;28.92;;
5981;SDS011;3018;48.730;9.336;2022-12-18T08:41:16;50.17;;;25.30;;
5981;SDS011;3018;48.730;9.336;2022-12-18T08:43:44;52.72;;;25.98;;
5981;SDS011;3018;48.730;9.336;2022-12-18T08:46:31;53.20;;;25.35;;
5981;SDS011;3018;48.730;9.336;2022-12-18T08:48:58;58.85;;;27.30;;
5981;SDS011;3018;48.730;9.336;2022-12-18T08:51:24;53.42;;;24.45;;
5981;SDS011;3018;48.730;9.336;2022-12-18T08:53:50;52.22;;;24.25;;
5981;SDS011;3018;48.730;9.336;2022-12-18T08:56:17;58.42;;;28.13;;
5981;SDS011;3018;48.730;9.336;2022-12-18T08:58:44;51.85;;;26.70;;
5981;SDS011;3018;48.730;9.336;2022-12-18T09:01:11;54.50;;;25.38;;
5981;SDS011;3018;48.730;9.336;2022-12-18T09:03:38;57.78;;;27.40;;
5981;SDS011;3018;48.730;9.336;2022-12-18T09:06:05;55.25;;;26.40;;
5981;SDS011;3018;48.730;9.336;2022-12-18T09:08:31;60.55;;;27.77;;
5981;SDS011;3018;48.730;9.336;2022-12-18T09:10:57;63.92;;;27.30;;
5981;SDS011;3018;48.730;9.336;2022-12-18T09:13:24;62.70;;;27.60;;
5981;SDS011;3018;48.730;9.336;2022-12-18T09:15:52;63.45;;;28.45;;
5981;SDS011;3018;48.730;9.336;2022-12-18T09:18:19;58.55;;;28.40;;
5981;SDS011;3018;48.730;9.336;2022-12-18T09:20:46;55.05;;;26.75;;
5981;SDS011;3018;48.730;9.336;2022-12-18T09:23:13;60.55;;;27.98;;
5981;SDS011;3018;48.730;9.336;2022-12-18T09:25:39;53.83;;;26.90;;
5981;SDS011;3018;48.730;9.336;2022-12-18T09:28:06;57.60;;;26.67;;
5981;SDS011;3018;48.730;9.336;2022-12-18T09:30:33;62.15;;;28.20;;
5981;SDS011;3018;48.730;9.336;2022-12-18T09:33:01;59.42;;;29.48;;
5981;SDS011;3018;48.730;9.336;2022-12-18T09:35:27;61.58;;;28.38;;
5981;SDS011;3018;48.730;9.336;2022-12-18T09:37:54;60.45;;;26.77;;
5981;SDS011;3018;48.730;9.336;2022-12-18T09:40:21;55.15;;;26.30;;
5981;SDS011;3018;48.730;9.336;2022-12-18T09:42:49;55.25;;;26.45;;
5981;SDS011;3018;48.730;9.336;2022-12-18T09:45:17;50.83;;;26.90;;
5981;SDS011;3018;48.730;9.336;2022-12-18T09:47:44;60.75;;;28.48;;
5981;SDS011;3018;48.730;9.336;2022-12-18T09:50:17;54.42;;;28.05;;
5981;SDS011;3018;48.730;9.336;2022-12-18T09:52:48;59.20;;;27.85;;
5981;SDS011;3018;48.730;9.336;2022-12-18T09:55:18;64.20;;;28.42;;
5981;SDS011;3018;48.730;9.336;2022-12-18T09:57:47;61.58;;;28.15;;
5981;SDS011;3018;48.730;9.336;2022-12-18T10:00:16;61.22;;;28.80;;
5981;SDS011;3018;48.730;9.336;2022-12-18T10:02:43;67.70;;;30.58;;
5981;SDS011;3018;48.730;9.336;2022-12-18T10:05:11;54.85;;;27.35;;
5981;SDS011;3018;48.730;9.336;2022-12-18T10:07:53;63.17;;;27.50;;
5981;SDS011;3018;48.730;9.336;2022-12-18T10:10:23;57.92;;;27.80;;
5981;SDS011;3018;48.730;9.336;2022-12-18T10:12:52;62.13;;;28.23;;
5981;SDS011;3018;48.730;9.336;2022-12-18T10:15:22;56.45;;;29.88;;
5981;SDS011;3018;48.730;9.336;2022-12-18T10:17:51;59.92;;;28.23;;
5981;SDS011;3018;48.730;9.336;2022-12-18T10:20:20;63.13;;;28.65;;
5981;SDS011;3018;48.730;9.336;2022-12-18T10:22:49;60.08;;;29.25;;
5981;SDS011;3018;48.730;9.336;2022-12-18T10:25:19;59.33;;;29.13;;
5981;SDS011;3018;48.730;9.336;2022-12-18T10:27:47;56.50;;;27.98;;
5981;SDS011;3018;48.730;9.336;2022-12-18T10:30:14;59.88;;;27.13;;
5981;SDS011;3018;48.730;9.336;2022-12-18T10:32:41;58.20;;;28.52;;
5981;SDS011;3018;48.730;9.336;2022-12-18T10:35:08;59.92;;;28.35;;
5981;SDS011;3018;48.730;9.336;2022-12-18T10:37:38;57.08;;;29.40;;
5981;SDS011;3018;48.730;9.336;2022-12-18T10:40:26;62.45;;;28.95;;
5981;SDS011;3018;48.730;9.336;2022-12-18T10:43:02;58.90;;;29.42;;
5981;SDS011;3018;48.730;9.336;2022-12-18T10:45:29;57.75;;;27.42;;
5981;SDS011;3018;48.730;9.336;2022-12-18T10:47:55;58.33;;;29.98;;
5981;SDS011;3018;48.730;9.336;2022-12-18T10:50:24;60.22;;;29.38;;
5981;SDS011;3018;48.730;9.336;2022-12-18T10:52:55;62.70;;;28.95;;
5981;SDS011;3018;48.730;9.336;2022-12-18T10:55:22;59.13;;;28.77;;
5981;SDS011;3018;48.730;9.336;2022-12-18T10:57:49;58.30;;;29.95;;
5981;SDS011;3018;48.730;9.336;2022-12-18T11:00:21;57.97;;;28.50;;
5981;SDS011;3018;48.730;9.336;2022-12-18T11:02:48;59.97;;;28.65;;
5981;SDS011;3018;48.730;9.336;2022-12-18T11:05:25;50.95;;;27.20;;
5981;SDS011;3018;48.730;9.336;2022-12-18T11:07:51;57.05;;;28.95;;
5981;SDS011;3018;48.730;9.336;2022-12-18T11:10:19;60.40;;;28.55;;
5981;SDS011;3018;48.730;9.336;2022-12-18T11:12:46;59.38;;;29.77;;
5981;SDS011;3018;48.730;9.336;2022-12-18T11:15:19;63.63;;;30.58;;
5981;SDS011;3018;48.730;9.336;2022-12-18T11:17:46;62.95;;;29.75;;
5981;SDS011;3018;48.730;9.336;2022-12-18T11:20:19;60.60;;;29.95;;
5981;SDS011;3018;48.730;9.336;2022-12-18T11:22:53;66.18;;;31.77;;
5981;SDS011;3018;48.730;9.336;2022-12-18T11:25:20;64.00;;;30.55;;
5981;SDS011;3018;48.730;9.336;2022-12-18T11:27:47;63.85;;;30.25;;
5981;SDS011;3018;48.730;9.336;2022-12-18T11:30:20;59.72;;;30.67;;
5981;SDS011;3018;48.730;9.336;2022-12-18T11:32:48;61.97;;;30.02;;
5981;SDS011;3018;48.730;9.336;2022-12-18T11:35:16;59.80;;;30.67;;
5981;SDS011;3018;48.730;9.336;2022-12-18T11:37:43;55.05;;;30.20;;
5981;SDS011;3018;48.730;9.336;2022-12-18T11:40:13;57.25;;;29.95;;
5981;SDS011;3018;48.730;9.336;2022-12-18T11:45:20;57.92;;;29.40;;
5981;SDS011;3018;48.730;9.336;2022-12-18T11:47:52;59.67;;;30.70;;
5981;SDS011;3018;48.730;9.336;2022-12-18T11:50:24;59.65;;;30.67;;
5981;SDS011;3018;48.730;9.336;2022-12-18T11:52:50;54.47;;;30.23;;
5981;SDS011;3018;48.730;9.336;2022-12-18T11:55:19;58.67;;;30.75;;
5981;SDS011;3018;48.730;9.336;2022-12-18T11:57:49;56.05;;;29.92;;
5981;SDS011;3018;48.730;9.336;2022-12-18T12:00:21;62.38;;;31.17;;
5981;SDS011;3018;48.730;9.336;2022-12-18T12:02:57;64.53;;;31.08;;
5981;SDS011;3018;48.730;9.336;2022-12-18T12:05:31;55.65;;;30.30;;
5981;SDS011;3018;48.730;9.336;2022-12-18T12:08:04;59.50;;;30.63;;
5981;SDS011;3018;48.730;9.336;2022-12-18T12:10:36;60.10;;;30.80;;
5981;SDS011;3018;48.730;9.336;2022-12-18T12:13:22;50.88;;;28.95;;
5981;SDS011;3018;48.730;9.336;2022-12-18T12:15:52;56.72;;;30.23;;
5981;SDS011;3018;48.730;9.336;2022-12-18T12:18:25;52.97;;;30.27;;
5981;SDS011;3018;48.730;9.336;2022-12-18T12:20:58;57.25;;;30.08;;
5981;SDS011;3018;48.730;9.336;2022-12-18T12:23:28;54.60;;;29.48;;
5981;SDS011;3018;48.730;9.336;2022-12-18T12:25:56;56.97;;;30.50;;
5981;SDS011;3018;48.730;9.336;2022-12-18T12:28:27;59.03;;;30.50;;
5981;SDS011;3018;48.730;9.336;2022-12-18T12:30:57;56.95;;;30.27;;
5981;SDS011;3018;48.730;9.336;2022-12-18T12:33:31;58.97;;;30.92;;
5981;SDS011;3018;48.730;9.336;2022-12-18T12:36:02;56.72;;;30.63;;
5981;SDS011;3018;48.730;9.336;2022-12-18T12:38:32;56.95;;;29.83;;
5981;SDS011;3018;48.730;9.336;2022-12-18T12:41:00;57.17;;;31.83;;
5981;SDS011;3018;48.730;9.336;2022-12-18T12:43:30;54.78;;;29.85;;
5981;SDS011;3018;48.730;9.336;2022-12-18T12:45:57;60.92;;;31.65;;
5981;SDS011;3018;48.730;9.336;2022-12-18T12:48:32;59.85;;;32.72;;
5981;SDS011;3018;48.730;9.336;2022-12-18T12:51:00;58.00;;;30.98;;
5981;SDS011;3018;48.730;9.336;2022-12-18T12:53:29;57.92;;;31.73;;
5981;SDS011;3018;48.730;9.336;2022-12-18T12:55:57;61.22;;;32.83;;
5981;SDS011;3018;48.730;9.336;2022-12-18T12:58:26;60.17;;;31.77;;
5981;SDS011;3018;48.730;9.336;2022-12-18T13:00:59;62.13;;;32.35;;
5981;SDS011;3018;48.730;9.336;2022-12-18T13:03:30;59.25;;;31.23;;
5981;SDS011;3018;48.730;9.336;2022-12-18T13:06:04;55.67;;;32.35;;
5981;SDS011;3018;48.730;9.336;2022-12-18T13:08:34;55.83;;;31.27;;
5981;SDS011;3018;48.730;9.336;2022-12-18T13:11:27;66.63;;;33.05;;
5981;SDS011;3018;48.730;9.336;2022-12-18T13:14:19;63.88;;;32.00;;
5981;SDS011;3018;48.730;9.336;2022-12-18T13:16:45;60.70;;;33.65;;
5981;SDS011;3018;48.730;9.336;2022-12-18T13:19:18;62.78;;;31.60;;
5981;SDS011;3018;48.730;9.336;2022-12-18T13:21:53;68.63;;;32.63;;
5981;SDS011;3018;48.730;9.336;2022-12-18T13:24:22;58.72;;;31.55;;
5981;SDS011;3018;48.730;9.336;2022-12-18T13:26:49;66.60;;;31.38;;
5981;SDS011;3018;48.730;9.336;2022-12-18T13:29:40;62.00;;;31.63;;
5981;SDS011;3018;48.730;9.336;2022-12-18T13:32:10;60.65;;;31.17;;
5981;SDS011;3018;48.730;9.336;2022-12-18T13:34:44;59.65;;;31.08;;
5981;SDS011;3018;48.730;9.336;2022-12-18T13:39:57;65.35;;;30.23;;
5981;SDS011;3018;48.730;9.336;2022-12-18T13:42:38;58.72;;;31.58;;
5981;SDS011;3018;48.730;9.336;2022-12-18T13:45:36;76.88;;;38.00;;
5981;SDS011;3018;48.730;9.336;2022-12-18T13:48:03;61.17;;;31.20;;
5981;SDS011;3018;48.730;9.336;2022-12-18T13:50:29;57.53;;;30.63;;
5981;SDS011;3018;48.730;9.336;2022-12-18T13:52:56;60.00;;;31.95;;
5981;SDS011;3018;48.730;9.336;2022-12-18T13:55:24;59.75;;;30.50;;
5981;SDS011;3018;48.730;9.336;2022-12-18T13:57:51;70.70;;;31.42;;
5981;SDS011;3018;48.730;9.336;2022-12-18T14:00:29;57.00;;;28.58;;
5981;SDS011;3018;48.730;9.336;2022-12-18T14:02:55;61.53;;;30.60;;
5981;SDS011;3018;48.730;9.336;2022-12-18T14:05:22;56.08;;;30.02;;
5981;SDS011;3018;48.730;9.336;2022-12-18T14:07:48;64.95;;;29.95;;
5981;SDS011;3018;48.730;9.336;2022-12-18T14:10:15;62.42;;;31.40;;
5981;SDS011;3018;48.730;9.336;2022-12-18T14:12:46;55.40;;;30.90;;
5981;SDS011;3018;48.730;9.336;2022-12-18T14:15:27;58.78;;;30.67;;
5981;SDS011;3018;48.730;9.336;2022-12-18T14:17:57;63.45;;;32.65;;
5981;SDS011;3018;48.730;9.336;2022-12-18T14:20:24;63.22;;;31.20;;
5981;SDS011;3018;48.730;9.336;2022-12-18T14:22:50;65.63;;;34.42;;
5981;SDS011;3018;48.730;9.336;2022-12-18T14:25:17;65.30;;;33.28;;
5981;SDS011;3018;48.730;9.336;2022-12-18T14:27:46;64.28;;;31.75;;
5981;SDS011;3018;48.730;9.336;2022-12-18T14:30:26;62.35;;;31.60;;
5981;SDS011;3018;48.730;9.336;2022-12-18T14:33:02;60.65;;;31.70;;
5981;SDS011;3018;48.730;9.336;2022-12-18T14:35:28;59.90;;;30.02;;
5981;SDS011;3018;48.730;9.336;2022-12-18T14:38:07;54.28;;;29.75;;
5981;SDS011;3018;48.730;9.336;2022-12-18T14:40:34;63.22;;;29.92;;
5981;SDS011;3018;48.730;9.336;2022-12-18T14:43:01;58.58;;;29.38;;
5981;SDS011;3018;48.730;9.336;2022-12-18T14:45:35;55.22;;;29.02;;
5981;SDS011;3018;48.730;9.336;2022-12-18T14:48:05;58.40;;;29.80;;
5981;SDS011;3018;48.730;9.336;2022-12-18T14:50:32;57.72;;;28.90;;
5981;SDS011;3018;48.730;9.336;2022-12-18T14:52:58;51.25;;;27.95;;
5981;SDS011;3018;48.730;9.336;2022-12-18T14:55:24;58.47;;;28.10;;
5981;SDS011;3018;48.730;9.336;2022-12-18T14:57:51;56.60;;;28.88;;
5981;SDS011;3018;48.730;9.336;2022-12-18T15:00:20;57.72;;;28.67;;